Time;durP1;ratioP1;P1;durP2;ratioP2;P2;SDS_P1;SDS_P2;PMS_P1;PMS_P2;Temp;Humidity;BMP_temperature;BMP_pressure;BME280_temperature;BME280_humidity;BME280_pressure;Samples;Min_cycle;Max_cycle;Signal;HPM_P1;HPM_P2
2022/07/29 00:00:08;;;;;;;5.38;2.17;;;22.10;99.90;;;;;;5088316;28;20020;-71
2022/07/29 00:02:34;;;;;;;3.63;2.28;;;22.10;99.90;;;;;;5090302;28;20017;-71
2022/07/29 00:05:01;;;;;;;4.82;2.45;;;22.00;99.90;;;;;;5084500;28;20488;-71
2022/07/29 00:07:27;;;;;;;8.02;2.25;;;22.00;99.90;;;;;;5080106;28;20070;-71
2022/07/29 00:09:53;;;;;;;3.72;2.33;;;22.00;99.90;;;;;;5091133;28;20023;-71
2022/07/29 00:12:20;;;;;;;5.40;3.03;;;22.00;99.90;;;;;;5078345;28;20020;-71
2022/07/29 00:14:46;;;;;;;4.13;2.38;;;22.00;99.90;;;;;;5077523;28;20095;-71
2022/07/29 00:17:12;;;;;;;5.18;2.45;;;21.90;99.90;;;;;;5095299;28;20044;-71
2022/07/29 00:19:38;;;;;;;6.93;2.42;;;21.90;99.90;;;;;;5095634;28;20454;-71
2022/07/29 00:22:04;;;;;;;5.55;1.90;;;21.90;99.90;;;;;;5094110;28;20016;-71
2022/07/29 00:24:29;;;;;;;3.13;1.98;;;21.90;99.90;;;;;;5095798;28;20024;-71
2022/07/29 00:26:55;;;;;;;6.03;2.20;;;21.90;99.90;;;;;;5092778;28;20028;-71
2022/07/29 00:29:21;;;;;;;3.10;2.10;;;22.00;99.90;;;;;;5095750;28;20024;-71
2022/07/29 00:31:47;;;;;;;5.40;2.50;;;21.90;99.90;;;;;;5085784;28;20479;-71
2022/07/29 00:36:57;;;;;;;4.90;2.35;;;21.90;99.90;;;;;;5088530;28;20051;-71
2022/07/29 00:39:23;;;;;;;2.33;1.80;;;21.90;99.90;;;;;;5080213;28;20028;-71
2022/07/29 00:41:50;;;;;;;4.45;3.08;;;21.90;99.90;;;;;;5087857;28;20016;-71
2022/07/29 00:44:16;;;;;;;4.22;2.33;;;21.90;99.90;;;;;;5084517;28;20016;-71
2022/07/29 00:46:42;;;;;;;5.35;2.50;;;21.90;99.90;;;;;;5085952;28;20025;-71
2022/07/29 00:49:08;;;;;;;11.02;2.97;;;21.90;99.90;;;;;;5082401;28;20546;-71
2022/07/29 00:51:37;;;;;;;4.85;2.42;;;21.90;99.90;;;;;;5094676;28;20036;-71
2022/07/29 00:54:04;;;;;;;7.57;2.67;;;21.90;99.90;;;;;;5090252;28;20049;-72
2022/07/29 00:56:32;;;;;;;5.50;2.65;;;21.90;99.90;;;;;;5087894;28;20020;-71
2022/07/29 00:58:59;;;;;;;4.80;2.22;;;21.90;99.90;;;;;;5087424;28;20019;-70
2022/07/29 01:01:26;;;;;;;6.22;2.70;;;21.90;99.90;;;;;;5083998;28;20028;-71
2022/07/29 01:03:52;;;;;;;3.80;1.88;;;21.90;99.90;;;;;;5092998;28;20028;-71
2022/07/29 01:06:18;;;;;;;5.63;2.30;;;22.00;99.90;;;;;;5088643;28;20020;-72
2022/07/29 01:08:46;;;;;;;7.97;2.30;;;22.00;99.90;;;;;;5086415;28;20392;-71
2022/07/29 01:11:13;;;;;;;3.10;2.20;;;22.00;99.90;;;;;;5083041;28;20025;-71
2022/07/29 01:13:40;;;;;;;7.47;2.45;;;22.00;99.90;;;;;;5097311;28;20028;-73
2022/07/29 01:17:05;;;;;;;5.35;2.58;;;22.00;99.90;;;;;;5099218;28;20081;-71
2022/07/29 01:19:55;;;;;;;6.43;2.20;;;21.90;99.90;;;;;;5012991;28;20033;-70
2022/07/29 01:22:37;;;;;;;9.13;2.47;;;21.90;99.90;;;;;;5075523;28;20052;-71
2022/07/29 01:25:34;;;;;;;5.85;2.70;;;21.90;99.90;;;;;;5089641;28;20438;-72
2022/07/29 01:28:35;;;;;;;5.15;2.13;;;21.80;99.90;;;;;;5099374;28;20023;-71
2022/07/29 01:31:03;;;;;;;5.30;2.30;;;21.60;99.90;;;;;;5090893;28;20385;-71
2022/07/29 01:33:48;;;;;;;4.20;2.47;;;21.40;99.90;;;;;;5087701;28;20021;-71
2022/07/29 01:36:24;;;;;;;4.43;2.40;;;21.20;99.90;;;;;;5084615;28;20073;-71
2022/07/29 01:38:59;;;;;;;4.63;2.33;;;21.00;99.90;;;;;;5094127;28;20123;-71
2022/07/29 01:41:31;;;;;;;3.45;2.20;;;20.90;99.90;;;;;;5086102;28;20012;-71
2022/07/29 01:44:02;;;;;;;4.22;2.63;;;20.90;99.90;;;;;;5093993;28;20028;-71
2022/07/29 01:46:35;;;;;;;6.32;2.55;;;20.80;99.90;;;;;;5092899;28;20024;-71
2022/07/29 01:49:15;;;;;;;5.75;2.58;;;20.70;99.90;;;;;;5082146;28;20094;-71
2022/07/29 01:52:13;;;;;;;5.18;2.58;;;20.70;99.90;;;;;;5097674;28;20072;-71
2022/07/29 01:54:45;;;;;;;3.53;2.53;;;20.60;99.90;;;;;;5079020;28;20033;-71
2022/07/29 01:57:19;;;;;;;3.65;2.20;;;20.60;99.90;;;;;;5093013;28;20027;-70
2022/07/29 01:59:47;;;;;;;4.40;2.50;;;20.50;99.90;;;;;;5087211;28;20029;-71
2022/07/29 02:02:16;;;;;;;7.75;2.92;;;20.50;99.90;;;;;;5098822;28;20012;-71
2022/07/29 02:04:45;;;;;;;4.35;2.35;;;20.50;99.90;;;;;;5096958;28;20077;-71
2022/07/29 02:07:15;;;;;;;3.97;2.20;;;20.60;99.90;;;;;;5095187;28;20099;-71
2022/07/29 02:09:42;;;;;;;8.30;2.53;;;20.60;99.90;;;;;;5099345;28;20135;-71
2022/07/29 02:12:09;;;;;;;6.50;2.55;;;20.60;99.90;;;;;;5083857;28;20027;-71
2022/07/29 02:14:40;;;;;;;4.38;2.15;;;20.60;99.90;;;;;;5089413;28;20035;-71
2022/07/29 02:17:07;;;;;;;3.53;2.42;;;20.60;99.90;;;;;;5096351;28;20111;-71
2022/07/29 02:19:34;;;;;;;5.47;2.97;;;20.50;99.90;;;;;;5096964;28;20127;-71
2022/07/29 02:22:01;;;;;;;10.60;3.33;;;20.50;99.90;;;;;;5093828;28;20055;-71
2022/07/29 02:24:29;;;;;;;4.88;2.88;;;20.50;99.90;;;;;;5098282;28;20049;-70
2022/07/29 02:26:57;;;;;;;4.60;2.65;;;20.50;99.90;;;;;;5088748;28;20020;-71
2022/07/29 02:29:26;;;;;;;8.20;2.45;;;20.40;99.90;;;;;;5093356;28;20055;-71
2022/07/29 02:31:53;;;;;;;4.82;2.45;;;20.40;99.90;;;;;;5091468;28;20497;-71
2022/07/29 02:34:21;;;;;;;5.18;2.63;;;20.40;99.90;;;;;;5090209;28;20023;-71
2022/07/29 02:36:48;;;;;;;7.05;2.83;;;20.30;99.90;;;;;;5092126;28;20050;-71
2022/07/29 02:39:15;;;;;;;5.50;2.30;;;20.30;99.90;;;;;;5094250;28;20507;-71
2022/07/29 02:41:48;;;;;;;6.18;2.47;;;20.30;99.90;;;;;;5081285;28;20025;-71
2022/07/29 02:44:19;;;;;;;7.03;2.70;;;20.20;99.90;;;;;;5092431;28;20063;-71
2022/07/29 02:47:06;;;;;;;5.25;3.00;;;20.20;99.90;;;;;;5086620;28;20024;-70
2022/07/29 02:49:40;;;;;;;8.13;2.42;;;20.20;99.90;;;;;;5097170;28;20020;-71
2022/07/29 02:52:15;;;;;;;3.72;2.20;;;20.20;99.90;;;;;;5097208;28;20054;-71
2022/07/29 02:54:53;;;;;;;3.63;2.30;;;20.10;99.90;;;;;;5097331;28;20032;-70
2022/07/29 02:57:34;;;;;;;5.65;2.22;;;20.10;99.90;;;;;;5095612;28;20099;-71
2022/07/29 03:00:05;;;;;;;8.02;2.67;;;20.10;99.90;;;;;;5083929;28;20507;-71
2022/07/29 03:02:45;;;;;;;6.15;1.90;;;20.00;99.90;;;;;;5087680;28;20024;-70
2022/07/29 03:05:18;;;;;;;4.07;2.30;;;20.00;99.90;;;;;;5084531;28;20095;-70
2022/07/29 03:07:49;;;;;;;5.40;2.28;;;20.10;99.90;;;;;;5088633;28;20107;-71
2022/07/29 03:10:15;;;;;;;7.78;2.17;;;20.10;99.90;;;;;;5097277;28;20059;-71
2022/07/29 03:12:42;;;;;;;6.35;2.20;;;20.10;99.90;;;;;;5090757;28;20036;-71
2022/07/29 03:15:09;;;;;;;7.90;2.85;;;20.10;99.90;;;;;;5083567;28;20024;-71
2022/07/29 03:17:36;;;;;;;5.97;2.15;;;20.10;99.90;;;;;;5092107;28;20093;-70
2022/07/29 03:20:02;;;;;;;6.97;2.85;;;20.10;99.90;;;;;;5096858;28;20112;-70
2022/07/29 03:22:28;;;;;;;5.88;2.42;;;20.10;99.90;;;;;;5098233;28;20091;-70
2022/07/29 03:24:54;;;;;;;5.50;2.35;;;20.00;99.90;;;;;;5094563;28;20070;-70
2022/07/29 03:27:20;;;;;;;6.93;2.83;;;20.00;99.90;;;;;;5089310;28;20028;-70
2022/07/29 03:29:46;;;;;;;6.10;2.08;;;19.90;99.90;;;;;;5083329;28;20034;-71
2022/07/29 03:32:12;;;;;;;5.32;2.47;;;19.80;99.90;;;;;;5079361;28;20107;-71
2022/07/29 03:34:38;;;;;;;8.25;3.13;;;19.70;99.90;;;;;;5094409;28;20045;-70
2022/07/29 03:37:05;;;;;;;6.82;2.42;;;19.70;99.90;;;;;;5097119;28;20024;-71
2022/07/29 03:39:36;;;;;;;8.73;2.40;;;19.60;99.90;;;;;;5094381;28;20020;-71
2022/07/29 03:42:03;;;;;;;;;;;19.60;99.90;;;;;;5096977;28;20031;-71
2022/07/29 03:44:31;;;;;;;7.32;2.60;;;19.60;99.90;;;;;;5096371;28;19911;-71
2022/07/29 03:47:00;;;;;;;6.25;2.38;;;19.60;99.90;;;;;;5092183;28;20020;-70
2022/07/29 03:49:27;;;;;;;5.80;2.10;;;19.50;99.90;;;;;;5088882;28;20090;-70
2022/07/29 03:51:54;;;;;;;6.50;2.55;;;19.30;99.90;;;;;;5095468;28;20047;-70
2022/07/29 03:54:20;;;;;;;4.07;2.28;;;19.20;99.90;;;;;;5085336;28;20028;-70
2022/07/29 03:56:48;;;;;;;6.68;2.53;;;19.00;99.90;;;;;;5092346;28;20111;-70
2022/07/29 03:59:16;;;;;;;3.25;2.08;;;18.90;99.90;;;;;;5091539;28;20273;-70
2022/07/29 04:01:43;;;;;;;7.82;2.67;;;18.90;99.90;;;;;;5080994;28;20016;-70
2022/07/29 04:04:09;;;;;;;4.85;2.78;;;18.70;99.90;;;;;;5080817;28;20016;-70
2022/07/29 04:06:39;;;;;;;5.13;3.13;;;18.70;99.90;;;;;;5078071;28;20069;-70
2022/07/29 04:09:05;;;;;;;9.60;3.67;;;18.70;99.90;;;;;;5083332;28;20023;-70
2022/07/29 04:11:31;;;;;;;8.80;3.08;;;18.60;99.90;;;;;;5096458;28;20923;-70
2022/07/29 04:13:57;;;;;;;7.68;3.55;;;18.60;99.90;;;;;;5093050;28;20024;-71
2022/07/29 04:16:23;;;;;;;3.70;2.78;;;18.70;99.90;;;;;;5096351;28;20111;-71
2022/07/29 04:18:49;;;;;;;11.20;3.08;;;18.60;99.90;;;;;;5092610;28;20020;-70
2022/07/29 04:21:14;;;;;;;6.97;2.70;;;18.50;99.90;;;;;;5092466;28;20042;-71
2022/07/29 04:23:40;;;;;;;6.00;2.63;;;18.40;99.90;;;;;;5086304;28;20024;-71
2022/07/29 04:26:09;;;;;;;7.25;2.78;;;18.40;99.90;;;;;;5095417;28;20020;-71
2022/07/29 04:28:35;;;;;;;4.03;2.60;;;18.30;99.90;;;;;;5090870;28;20077;-71
2022/07/29 04:31:01;;;;;;;4.38;2.45;;;18.30;99.90;;;;;;5092983;28;20020;-70
2022/07/29 04:33:27;;;;;;;2.85;2.42;;;18.20;99.90;;;;;;5080355;28;20017;-70
2022/07/29 04:35:53;;;;;;;4.95;2.78;;;18.30;99.90;;;;;;5080040;28;20035;-70
2022/07/29 04:38:19;;;;;;;3.70;2.50;;;18.20;99.90;;;;;;5078551;28;20094;-70
2022/07/29 04:40:44;;;;;;;3.95;3.13;;;18.20;99.90;;;;;;5077343;28;20020;-70
2022/07/29 04:43:10;;;;;;;5.20;3.08;;;18.10;99.90;;;;;;5098453;28;20481;-70
2022/07/29 04:45:36;;;;;;;6.15;3.35;;;18.10;99.90;;;;;;5100058;28;20450;-70
2022/07/29 04:48:02;;;;;;;6.22;2.90;;;18.10;99.90;;;;;;5096989;28;20021;-70
2022/07/29 04:50:28;;;;;;;5.68;2.65;;;18.20;99.90;;;;;;5099569;28;20024;-70
2022/07/29 04:52:53;;;;;;;5.25;2.88;;;18.20;99.90;;;;;;5090891;28;20056;-70
2022/07/29 04:55:19;;;;;;;6.22;2.65;;;18.20;99.90;;;;;;5095884;28;20020;-70
2022/07/29 04:57:45;;;;;;;5.35;3.30;;;18.30;99.90;;;;;;5093901;28;20029;-71
2022/07/29 05:00:12;;;;;;;6.20;2.90;;;18.30;99.90;;;;;;5092315;28;20020;-71
2022/07/29 05:02:38;;;;;;;3.75;2.67;;;18.40;99.90;;;;;;5086499;28;20012;-71
2022/07/29 05:05:04;;;;;;;9.45;2.90;;;18.40;99.90;;;;;;5096713;28;20044;-71
2022/07/29 05:07:30;;;;;;;6.80;2.75;;;18.40;99.90;;;;;;5084940;28;20025;-71
2022/07/29 05:09:56;;;;;;;6.20;3.17;;;18.40;99.90;;;;;;5085337;28;20077;-71
2022/07/29 05:12:23;;;;;;;6.90;2.95;;;18.40;99.90;;;;;;5099402;28;20028;-71
2022/07/29 05:14:49;;;;;;;4.25;3.25;;;18.40;99.90;;;;;;5087815;28;20396;-71
2022/07/29 05:17:15;;;;;;;8.32;4.00;;;18.30;99.90;;;;;;5080323;28;20024;-70
2022/07/29 05:19:41;;;;;;;7.35;3.33;;;18.20;99.90;;;;;;5091881;28;20024;-71
2022/07/29 05:22:06;;;;;;;8.45;3.35;;;18.10;99.90;;;;;;5096247;28;20016;-71
2022/07/29 05:24:32;;;;;;;9.52;3.67;;;18.10;99.90;;;;;;5097862;28;20016;-71
2022/07/29 05:26:58;;;;;;;7.90;3.65;;;18.10;99.90;;;;;;5094850;28;20025;-72
2022/07/29 05:29:24;;;;;;;7.88;3.55;;;18.20;99.90;;;;;;5088701;28;20024;-72
2022/07/29 05:31:51;;;;;;;7.47;3.42;;;18.20;99.90;;;;;;5098169;28;20030;-72
2022/07/29 05:34:18;;;;;;;8.13;3.15;;;18.40;99.90;;;;;;5098545;28;20069;-72
2022/07/29 05:36:44;;;;;;;7.97;3.40;;;18.30;99.90;;;;;;5098532;28;20111;-71
2022/07/29 05:39:11;;;;;;;11.07;3.72;;;18.30;99.90;;;;;;5099021;28;20027;-72
2022/07/29 05:41:38;;;;;;;14.68;4.10;;;18.20;99.90;;;;;;5098788;28;19907;-71
2022/07/29 05:44:04;;;;;;;4.20;3.25;;;18.20;99.90;;;;;;5086847;28;20118;-71
2022/07/29 05:46:30;;;;;;;7.95;3.05;;;18.10;99.90;;;;;;5081239;28;20017;-71
2022/07/29 05:48:56;;;;;;;5.47;3.22;;;18.10;99.90;;;;;;5080209;28;20381;-72
2022/07/29 05:51:22;;;;;;;5.07;3.00;;;18.00;99.90;;;;;;5098589;28;20040;-71
2022/07/29 05:53:48;;;;;;;8.73;3.78;;;18.00;99.90;;;;;;5097905;28;20024;-71
2022/07/29 05:56:14;;;;;;;7.55;3.63;;;17.90;99.90;;;;;;5094284;28;20028;-72
2022/07/29 05:58:39;;;;;;;6.28;3.40;;;17.90;99.90;;;;;;5097000;28;20024;-70
2022/07/29 06:01:05;;;;;;;6.38;3.72;;;17.80;99.90;;;;;;5090712;28;20025;-72
2022/07/29 06:03:31;;;;;;;5.22;3.55;;;17.80;99.90;;;;;;5090946;28;20019;-72
2022/07/29 06:05:57;;;;;;;4.55;3.45;;;17.70;99.90;;;;;;5090983;28;20016;-72
2022/07/29 06:08:23;;;;;;;5.65;4.00;;;17.70;99.90;;;;;;5095805;28;20086;-71
2022/07/29 06:10:49;;;;;;;5.10;3.28;;;17.70;99.90;;;;;;5091451;28;20030;-71
2022/07/29 06:13:15;;;;;;;7.40;3.85;;;17.60;99.90;;;;;;5094606;28;20050;-71
2022/07/29 06:15:42;;;;;;;5.93;3.97;;;17.70;99.90;;;;;;5090821;28;20028;-72
2022/07/29 06:18:09;;;;;;;7.10;3.75;;;17.70;99.90;;;;;;5081290;28;20055;-72
2022/07/29 06:20:36;;;;;;;7.40;4.00;;;17.70;99.90;;;;;;5094786;28;20050;-72
2022/07/29 06:23:04;;;;;;;12.15;4.85;;;17.70;99.90;;;;;;5081019;28;20042;-72
2022/07/29 06:25:30;;;;;;;13.65;4.40;;;17.70;99.90;;;;;;5085463;28;20103;-71
2022/07/29 06:27:56;;;;;;;6.57;4.07;;;17.70;99.90;;;;;;5080867;28;20044;-71
2022/07/29 06:30:22;;;;;;;7.30;4.00;;;17.70;99.90;;;;;;5086625;28;20025;-71
2022/07/29 06:32:49;;;;;;;7.45;3.92;;;17.80;99.90;;;;;;5088868;28;20038;-71
2022/07/29 06:35:14;;;;;;;6.72;3.97;;;17.80;99.90;;;;;;5086955;28;20505;-71
2022/07/29 06:37:40;;;;;;;6.57;4.00;;;17.80;99.90;;;;;;5100051;28;20063;-71
2022/07/29 06:42:51;;;;;;;9.73;3.97;;;17.90;99.90;;;;;;5083776;28;20159;-71
2022/07/29 06:45:17;;;;;;;5.90;3.38;;;17.90;99.90;;;;;;5090041;28;20048;-74
2022/07/29 06:47:43;;;;;;;4.82;3.38;;;18.10;99.90;;;;;;5097945;28;20546;-73
2022/07/29 06:50:12;;;;;;;9.60;3.95;;;18.30;99.90;;;;;;5098694;28;20448;-73
2022/07/29 06:52:38;;;;;;;9.57;4.32;;;18.30;99.90;;;;;;5097008;28;20500;-74
2022/07/29 06:55:05;;;;;;;10.43;3.45;;;18.20;99.90;;;;;;5098348;28;20024;-73
2022/07/29 06:57:31;;;;;;;7.07;4.63;;;18.10;99.90;;;;;;5095512;28;20056;-74
2022/07/29 06:59:57;;;;;;;10.13;4.10;;;18.10;99.90;;;;;;5095999;28;20064;-73
2022/07/29 07:02:22;;;;;;;9.80;4.43;;;18.20;99.90;;;;;;5095336;28;20089;-73
2022/07/29 07:04:48;;;;;;;5.82;4.63;;;18.20;99.90;;;;;;5096469;28;20024;-73
2022/07/29 07:07:14;;;;;;;5.65;3.97;;;18.20;99.90;;;;;;5093933;28;20385;-74
2022/07/29 07:09:40;;;;;;;5.53;4.13;;;18.20;99.90;;;;;;5077125;28;20054;-73
2022/07/29 07:12:07;;;;;;;9.63;3.92;;;18.20;99.90;;;;;;5089612;28;20024;-73
2022/07/29 07:14:33;;;;;;;8.68;4.70;;;18.10;99.90;;;;;;5092788;28;20024;-73
2022/07/29 07:17:00;;;;;;;7.35;4.45;;;18.10;99.90;;;;;;5095187;28;20035;-73
2022/07/29 07:19:26;;;;;;;6.93;3.70;;;18.10;99.90;;;;;;5094851;28;20012;-73
2022/07/29 07:21:55;;;;;;;7.30;4.00;;;18.10;99.90;;;;;;5096834;28;20282;-73
2022/07/29 07:24:21;;;;;;;13.20;4.65;;;18.10;99.90;;;;;;5097043;28;20388;-73
2022/07/29 07:26:47;;;;;;;6.65;4.45;;;18.10;99.90;;;;;;5095578;28;20024;-73
2022/07/29 07:29:13;;;;;;;8.35;4.47;;;18.20;99.90;;;;;;5096897;28;20020;-73
2022/07/29 07:31:39;;;;;;;7.43;4.90;;;18.30;99.90;;;;;;5095131;28;20027;-73
2022/07/29 07:34:05;;;;;;;7.78;4.65;;;18.30;99.90;;;;;;5095532;28;20610;-73
2022/07/29 07:36:30;;;;;;;7.43;3.50;;;18.40;99.90;;;;;;5096578;28;20373;-72
2022/07/29 07:38:56;;;;;;;12.80;4.10;;;18.40;99.90;;;;;;5096870;28;20042;-73
2022/07/29 07:41:22;;;;;;;6.57;3.72;;;18.40;99.90;;;;;;5096747;28;20616;-73
2022/07/29 07:43:48;;;;;;;9.88;5.13;;;18.40;99.90;;;;;;5095224;28;20020;-73
2022/07/29 07:46:15;;;;;;;7.68;4.40;;;18.40;99.90;;;;;;5096727;28;20018;-72
2022/07/29 07:48:41;;;;;;;7.90;4.18;;;18.40;99.90;;;;;;5096653;28;20020;-73
2022/07/29 07:51:07;;;;;;;7.18;3.72;;;18.40;99.90;;;;;;5096024;28;20024;-73
2022/07/29 07:53:33;;;;;;;7.28;4.18;;;18.40;99.90;;;;;;5093149;28;20050;-72
2022/07/29 07:56:00;;;;;;;12.23;4.25;;;18.40;99.90;;;;;;5093810;28;20028;-74
2022/07/29 07:58:26;;;;;;;6.53;4.20;;;18.50;99.90;;;;;;5087766;28;20095;-73
2022/07/29 08:00:52;;;;;;;7.32;4.78;;;18.60;99.90;;;;;;5086510;28;20111;-72
2022/07/29 08:03:18;;;;;;;13.68;4.70;;;18.70;99.90;;;;;;5094589;28;20499;-73
2022/07/29 08:05:44;;;;;;;12.07;4.55;;;18.80;99.90;;;;;;5094110;28;20074;-72
2022/07/29 08:08:09;;;;;;;6.47;3.33;;;18.80;99.90;;;;;;5095673;28;20112;-71
2022/07/29 08:10:55;;;;;;;6.70;4.07;;;18.70;99.90;;;;;;5081031;28;20539;-72
2022/07/29 08:13:27;;;;;;;5.65;3.65;;;18.60;99.90;;;;;;5079228;28;20031;-72
2022/07/29 08:15:57;;;;;;;12.77;4.72;;;18.60;99.90;;;;;;5084674;28;20115;-73
2022/07/29 08:18:30;;;;;;;8.30;4.28;;;18.60;99.90;;;;;;5095493;28;20032;-72
2022/07/29 08:20:57;;;;;;;10.18;4.05;;;18.60;99.90;;;;;;5094534;28;20024;-72
2022/07/29 08:23:23;;;;;;;11.27;4.60;;;18.70;99.90;;;;;;5091190;28;20052;-72
2022/07/29 08:25:49;;;;;;;7.95;3.83;;;18.70;99.90;;;;;;5092004;28;20066;-72
2022/07/29 08:28:16;;;;;;;8.60;3.83;;;18.70;99.90;;;;;;5091289;28;20404;-72
2022/07/29 08:30:42;;;;;;;9.68;4.07;;;18.80;99.90;;;;;;5086254;28;20016;-72
2022/07/29 08:33:07;;;;;;;16.67;4.85;;;18.90;99.90;;;;;;5088305;28;20081;-72
2022/07/29 08:35:33;;;;;;;5.30;3.75;;;19.00;99.90;;;;;;5077229;28;20029;-71
2022/07/29 08:37:59;;;;;;;6.13;3.60;;;19.10;99.90;;;;;;5087878;28;20024;-71
2022/07/29 08:40:25;;;;;;;11.98;3.90;;;19.10;99.90;;;;;;5090093;28;20020;-72
2022/07/29 08:42:51;;;;;;;6.28;4.45;;;19.10;99.90;;;;;;5094356;28;20028;-71
2022/07/29 08:45:17;;;;;;;6.35;3.90;;;19.10;99.90;;;;;;5088711;28;20024;-71
2022/07/29 08:47:44;;;;;;;9.82;3.90;;;19.00;99.90;;;;;;5087196;28;20438;-71
2022/07/29 08:50:11;;;;;;;7.80;4.38;;;19.10;99.90;;;;;;5094661;28;20020;-71
2022/07/29 08:52:39;;;;;;;7.75;3.90;;;19.10;99.90;;;;;;5090980;28;20059;-71
2022/07/29 08:55:07;;;;;;;10.35;4.30;;;19.20;99.90;;;;;;5092729;28;20020;-71
2022/07/29 08:57:34;;;;;;;8.45;5.00;;;19.30;99.90;;;;;;5086479;28;20392;-71
2022/07/29 09:00:01;;;;;;;5.55;3.60;;;19.30;99.90;;;;;;5090634;28;20476;-71
2022/07/29 09:02:30;;;;;;;6.35;3.97;;;19.40;99.90;;;;;;5085512;28;20048;-71
2022/07/29 09:05:00;;;;;;;4.25;3.25;;;19.50;99.90;;;;;;5086999;28;20062;-70
2022/07/29 09:07:25;;;;;;;7.83;3.57;;;19.50;99.90;;;;;;5087586;28;20028;-71
2022/07/29 09:09:51;;;;;;;5.57;3.22;;;19.50;99.90;;;;;;5086154;28;20357;-71
2022/07/29 09:12:17;;;;;;;5.38;2.83;;;19.40;99.90;;;;;;5089134;28;20025;-71
2022/07/29 09:14:43;;;;;;;8.90;4.03;;;19.40;99.90;;;;;;5089410;28;20038;-71
2022/07/29 09:17:09;;;;;;;9.50;4.03;;;19.40;99.90;;;;;;5075653;28;20020;-70
2022/07/29 09:19:37;;;;;;;6.55;4.00;;;19.50;99.90;;;;;;5087474;28;20085;-71
2022/07/29 09:22:06;;;;;;;10.80;3.90;;;19.60;99.90;;;;;;5081754;28;20095;-71
2022/07/29 09:24:41;;;;;;;9.07;3.92;;;19.80;99.90;;;;;;5095271;28;20020;-71
2022/07/29 09:27:26;;;;;;;8.27;3.38;;;20.00;99.90;;;;;;5092558;28;20020;-71
2022/07/29 09:30:12;;;;;;;7.78;3.70;;;20.00;99.90;;;;;;5096182;28;20048;-71
2022/07/29 09:33:00;;;;;;;6.10;3.30;;;20.10;99.90;;;;;;5100180;28;20023;-70
2022/07/29 09:35:28;;;;;;;7.43;3.78;;;20.40;99.90;;;;;;5098235;28;20093;-70
2022/07/29 09:37:54;;;;;;;9.07;3.95;;;20.70;99.90;;;;;;5092496;28;20025;-71
2022/07/29 09:40:26;;;;;;;8.20;3.38;;;20.80;99.90;;;;;;5090218;28;20028;-70
2022/07/29 09:42:56;;;;;;;5.93;3.60;;;21.00;99.90;;;;;;5095035;28;20111;-70
2022/07/29 09:45:30;;;;;;;6.85;3.42;;;21.20;99.90;;;;;;5087409;28;20025;-70
2022/07/29 09:48:02;;;;;;;4.97;3.15;;;21.20;99.90;;;;;;5085322;28;20025;-72
2022/07/29 09:50:39;;;;;;;4.60;3.00;;;21.20;99.90;;;;;;5085423;28;20043;-71
2022/07/29 09:53:05;;;;;;;7.30;2.97;;;21.20;99.90;;;;;;5095696;28;20542;-71
2022/07/29 09:55:31;;;;;;;5.22;3.65;;;21.40;99.90;;;;;;5084416;28;20031;-72
2022/07/29 09:58:18;;;;;;;8.85;3.42;;;21.40;99.90;;;;;;5081122;28;20021;-72
2022/07/29 10:00:45;;;;;;;6.88;3.60;;;21.30;99.90;;;;;;5080313;28;20064;-71
2022/07/29 10:03:12;;;;;;;7.43;3.13;;;21.30;99.90;;;;;;5088362;28;20035;-72
2022/07/29 10:05:39;;;;;;;4.38;3.25;;;21.30;99.90;;;;;;5096103;28;20020;-71
2022/07/29 10:08:05;;;;;;;4.57;3.35;;;21.20;99.90;;;;;;5090104;28;20016;-71
2022/07/29 10:10:36;;;;;;;7.32;3.25;;;21.00;99.90;;;;;;5091848;28;20484;-72
2022/07/29 10:13:12;;;;;;;;;;;21.00;99.90;;;;;;5092901;28;20021;-71
2022/07/29 10:15:44;;;;;;;5.60;3.40;;;21.00;99.90;;;;;;5085349;28;19916;-72
2022/07/29 10:18:14;;;;;;;5.72;3.28;;;21.20;99.90;;;;;;5095202;28;20028;-72
2022/07/29 10:20:40;;;;;;;7.82;3.65;;;21.20;99.90;;;;;;5097877;28;20086;-72
2022/07/29 10:23:06;;;;;;;6.20;3.95;;;21.30;99.90;;;;;;5091417;28;20031;-72
2022/07/29 10:25:32;;;;;;;7.45;3.35;;;21.40;99.90;;;;;;5090926;28;20095;-72
2022/07/29 10:27:58;;;;;;;5.75;3.55;;;21.40;99.90;;;;;;5084794;28;20043;-77
2022/07/29 10:30:25;;;;;;;4.20;3.17;;;21.50;99.90;;;;;;5096968;28;20020;-72
2022/07/29 10:33:01;;;;;;;10.23;3.90;;;21.70;99.90;;;;;;5084822;28;20392;-72
2022/07/29 10:35:36;;;;;;;6.97;3.40;;;21.80;99.90;;;;;;5093446;28;20111;-71
2022/07/29 10:38:42;;;;;;;10.48;3.90;;;21.90;99.90;;;;;;5090959;28;20036;-72
2022/07/29 10:41:35;;;;;;;11.73;3.92;;;22.10;99.90;;;;;;5090286;28;20361;-72
2022/07/29 10:44:09;;;;;;;10.25;4.32;;;22.50;99.90;;;;;;5081904;28;20028;-71
2022/07/29 10:46:36;;;;;;;8.30;3.30;;;22.60;99.90;;;;;;5092243;28;20016;-73
2022/07/29 10:49:16;;;;;;;10.38;3.65;;;22.70;99.90;;;;;;5096038;28;20473;-72
2022/07/29 10:51:50;;;;;;;6.32;3.03;;;23.10;99.90;;;;;;5082934;28;20114;-72
2022/07/29 10:54:44;;;;;;;9.80;3.63;;;23.60;99.90;;;;;;5084868;28;20107;-72
2022/07/29 10:57:20;;;;;;;4.80;3.75;;;23.80;99.90;;;;;;5086114;28;20565;-73
2022/07/29 10:59:51;;;;;;;8.65;3.33;;;24.00;99.90;;;;;;5088620;28;20093;-73
2022/07/29 11:02:42;;;;;;;7.28;3.20;;;24.40;99.90;;;;;;5096093;28;20020;-72
2022/07/29 11:05:18;;;;;;;6.85;3.40;;;24.50;99.90;;;;;;5097665;28;20120;-72
2022/07/29 11:08:12;;;;;;;5.78;2.85;;;24.40;99.90;;;;;;5096926;28;20031;-72
2022/07/29 11:10:39;;;;;;;6.88;2.72;;;24.60;99.90;;;;;;5092994;28;20060;-72
2022/07/29 11:13:05;;;;;;;6.30;3.03;;;24.60;99.90;;;;;;5083924;28;20028;-72
2022/07/29 11:15:54;;;;;;;6.65;3.03;;;24.60;99.90;;;;;;5081215;28;20027;-72
2022/07/29 11:18:20;;;;;;;11.63;3.47;;;24.60;99.90;;;;;;5095072;28;20385;-72
2022/07/29 11:20:53;;;;;;;6.07;3.20;;;24.80;99.90;;;;;;5084081;28;20033;-72
2022/07/29 11:23:31;;;;;;;8.80;2.75;;;25.00;99.90;;;;;;5094763;28;20024;-72
2022/07/29 11:26:22;;;;;;;5.82;3.33;;;25.10;99.90;;;;;;5091228;28;20039;-71
2022/07/29 11:29:02;;;;;;;8.18;3.00;;;25.30;99.90;;;;;;5096528;28;20020;-73
2022/07/29 11:31:42;;;;;;;6.38;3.45;;;25.60;99.90;;;;;;5082564;28;20059;-72
2022/07/29 11:34:23;;;;;;;7.32;2.97;;;25.70;99.90;;;;;;5085508;28;20160;-73
2022/07/29 11:37:12;;;;;;;5.75;2.85;;;25.90;99.90;;;;;;5096183;28;20400;-72
2022/07/29 11:39:56;;;;;;;7.18;3.00;;;25.90;99.90;;;;;;5077114;28;20115;-72
2022/07/29 11:42:24;;;;;;;8.13;2.88;;;26.00;99.90;;;;;;5091789;28;20020;-72
2022/07/29 11:45:00;;;;;;;7.72;2.85;;;25.90;99.90;;;;;;5096387;28;20040;-71
2022/07/29 11:47:27;;;;;;;6.90;2.55;;;25.80;99.90;;;;;;5097128;28;20048;-72
2022/07/29 11:49:56;;;;;;;5.82;2.55;;;25.70;99.90;;;;;;5091521;28;20435;-72
2022/07/29 11:52:23;;;;;;;5.97;2.78;;;25.80;99.90;;;;;;5095732;28;20046;-72
2022/07/29 11:54:50;;;;;;;6.72;2.45;;;26.10;99.90;;;;;;5095913;28;20115;-71
2022/07/29 11:57:18;;;;;;;5.25;2.65;;;26.10;99.90;;;;;;5089050;28;20023;-73
2022/07/29 11:59:45;;;;;;;4.07;2.20;;;26.40;99.90;;;;;;5086690;28;20028;-72
2022/07/29 12:02:11;;;;;;;7.25;2.17;;;26.60;99.90;;;;;;5079541;28;20032;-71
2022/07/29 12:04:51;;;;;;;5.20;2.40;;;26.60;99.90;;;;;;5092506;28;20023;-73
2022/07/29 12:07:18;;;;;;;6.28;2.58;;;26.70;99.90;;;;;;5092116;28;20024;-73
2022/07/29 12:09:51;;;;;;;6.57;2.28;;;26.90;99.90;;;;;;5090948;28;20028;-73
2022/07/29 12:12:17;;;;;;;4.55;2.35;;;26.80;99.90;;;;;;5086805;28;20093;-73
2022/07/29 12:14:46;;;;;;;7.47;2.33;;;26.70;99.90;;;;;;5086952;28;20028;-73
2022/07/29 12:17:34;;;;;;;6.30;1.75;;;26.70;99.90;;;;;;5078924;28;20013;-73
2022/07/29 12:20:03;;;;;;;5.50;2.83;;;26.60;99.90;;;;;;5077556;28;20029;-72
2022/07/29 12:22:31;;;;;;;3.90;2.30;;;26.50;99.90;;;;;;5095632;28;20016;-73
2022/07/29 12:25:09;;;;;;;7.20;2.75;;;26.60;99.90;;;;;;5095225;28;20141;-73
2022/07/29 12:27:38;;;;;;;6.22;2.53;;;27.10;99.90;;;;;;5085704;28;20044;-73
2022/07/29 12:30:09;;;;;;;6.13;2.30;;;27.40;99.90;;;;;;5096662;28;20059;-73
2022/07/29 12:32:35;;;;;;;7.70;2.80;;;27.50;99.90;;;;;;5090258;28;20023;-73
2022/07/29 12:35:20;;;;;;;8.00;1.95;;;27.80;99.90;;;;;;5083711;28;20454;-73
2022/07/29 12:37:49;;;;;;;5.72;2.03;;;28.00;99.90;;;;;;5080416;28;20050;-73
2022/07/29 12:40:17;;;;;;;4.65;1.88;;;27.70;99.90;;;;;;5085399;28;20028;-73
2022/07/29 12:43:09;;;;;;;7.07;2.22;;;27.70;99.80;;;;;;5082287;28;20024;-72
2022/07/29 12:45:36;;;;;;;5.10;1.70;;;27.30;99.80;;;;;;5078856;28;20462;-73
2022/07/29 12:48:03;;;;;;;10.45;2.92;;;27.10;99.90;;;;;;5088073;28;20020;-73
2022/07/29 12:50:29;;;;;;;8.32;2.22;;;27.10;99.90;;;;;;5085279;28;20024;-73
2022/07/29 12:53:07;;;;;;;8.00;2.20;;;27.10;99.90;;;;;;5080429;28;20123;-72
2022/07/29 12:55:48;;;;;;;7.72;2.60;;;27.10;99.90;;;;;;5089841;28;20036;-72
2022/07/29 12:58:46;;;;;;;4.95;2.50;;;27.30;99.90;;;;;;5084214;28;20125;-72
2022/07/29 13:01:17;;;;;;;7.03;2.00;;;27.20;99.90;;;;;;5092087;28;20032;-72
2022/07/29 13:03:44;;;;;;;4.00;1.70;;;27.30;99.90;;;;;;5080693;28;20035;-71